createdAt,value
2019-05-01T00:00:18.869Z,9.91
2019-05-01T00:03:04.476Z,9.91
2019-05-01T00:05:37.312Z,9.91
2019-05-01T00:08:06.393Z,9.91
2019-05-01T00:10:35.760Z,9.91
2019-05-01T00:13:05.624Z,9.90
2019-05-01T00:15:36.056Z,9.89
2019-05-01T00:18:05.367Z,9.89
2019-05-01T00:20:33.790Z,9.89
2019-05-01T00:23:02.239Z,9.89
2019-05-01T00:25:30.725Z,9.87
2019-05-01T00:27:59.111Z,9.87
2019-05-01T00:30:30.265Z,9.86
2019-05-01T00:32:59.140Z,9.84
2019-05-01T00:35:27.557Z,9.83
2019-05-01T00:37:55.993Z,9.82
2019-05-01T00:40:24.795Z,9.81
2019-05-01T00:42:53.434Z,9.81
2019-05-01T00:45:21.895Z,9.81
2019-05-01T00:47:50.348Z,9.82
2019-05-01T00:50:18.783Z,9.78
2019-05-01T00:52:47.208Z,9.79
2019-05-01T00:55:34.126Z,9.77
2019-05-01T00:58:18.936Z,9.78
2019-05-01T01:00:49.057Z,9.78
2019-05-01T01:03:17.722Z,9.77
2019-05-01T01:05:46.249Z,9.78
2019-05-01T01:08:14.717Z,9.76
2019-05-01T01:10:43.147Z,9.76
2019-05-01T01:13:11.571Z,9.74
2019-05-01T01:15:40.055Z,9.73
2019-05-01T01:18:08.510Z,9.72
2019-05-01T01:20:36.920Z,9.71
2019-05-01T01:23:05.523Z,9.73
2019-05-01T01:25:34.307Z,9.74
2019-05-01T01:28:02.810Z,9.76
2019-05-01T01:30:31.276Z,9.74
2019-05-01T01:32:59.948Z,9.72
2019-05-01T01:35:28.443Z,9.71
2019-05-01T01:37:57.134Z,9.72
2019-05-01T01:40:25.551Z,9.73
2019-05-01T01:42:56.650Z,9.72
2019-05-01T01:45:31.775Z,9.73
2019-05-01T01:48:14.197Z,9.73
2019-05-01T01:50:45.174Z,9.74
2019-05-01T01:53:16.174Z,9.74
2019-05-01T01:55:45.440Z,9.77
2019-05-01T01:58:15.507Z,9.79
2019-05-01T02:00:45.797Z,9.81
2019-05-01T02:03:14.262Z,9.82
2019-05-01T02:05:44.727Z,9.82
2019-05-01T02:08:13.513Z,9.79
2019-05-01T02:13:12.953Z,9.79
2019-05-01T02:15:41.590Z,9.79
2019-05-01T02:18:10.019Z,9.80
2019-05-01T02:20:38.491Z,9.81
2019-05-01T02:23:07.042Z,9.81
2019-05-01T02:25:37.452Z,9.81
2019-05-01T02:28:26.231Z,9.79
2019-05-01T02:31:26.970Z,9.80
2019-05-01T02:33:45.200Z,9.78
2019-05-01T02:36:16.479Z,9.79
2019-05-01T02:38:47.179Z,9.80
2019-05-01T02:41:17.045Z,9.79
2019-05-01T02:43:48.522Z,9.78
2019-05-01T02:46:19.374Z,9.78
2019-05-01T02:48:53.847Z,9.78
2019-05-01T02:51:23.909Z,9.80
2019-05-01T02:53:53.070Z,9.81
2019-05-01T02:56:26.162Z,9.81
2019-05-01T02:58:57.595Z,9.81
2019-05-01T03:01:26.809Z,9.81
2019-05-01T03:03:58.010Z,9.82
2019-05-01T03:06:29.192Z,9.82
2019-05-01T03:08:59.815Z,9.82
2019-05-01T03:11:29.538Z,9.82
2019-05-01T03:14:01.025Z,9.82
2019-05-01T03:16:31.615Z,9.81
2019-05-01T03:19:05.598Z,9.79
2019-05-01T03:21:36.029Z,9.82
2019-05-01T03:24:06.204Z,9.84
2019-05-01T03:26:36.103Z,9.85
2019-05-01T03:29:06.575Z,9.84
2019-05-01T03:31:35.165Z,9.85
2019-05-01T03:34:03.819Z,9.84
2019-05-01T03:36:32.864Z,9.84
2019-05-01T03:39:01.396Z,9.85
2019-05-01T03:41:30.278Z,9.87
2019-05-01T03:43:59.724Z,9.87
2019-05-01T03:46:28.521Z,9.88
2019-05-01T03:48:57.655Z,9.89
2019-05-01T03:51:26.627Z,9.91
2019-05-01T03:53:55.062Z,9.92
2019-05-01T03:56:23.691Z,9.92
2019-05-01T03:58:52.131Z,9.90
2019-05-01T04:01:28.319Z,9.87
2019-05-01T04:04:02.651Z,9.86
2019-05-01T04:06:31.326Z,9.83
2019-05-01T04:09:00.286Z,9.83
2019-05-01T04:11:28.797Z,9.81
2019-05-01T04:13:58.961Z,9.79
2019-05-01T04:16:28.424Z,9.78
2019-05-01T04:18:56.928Z,9.78
2019-05-01T04:21:27.368Z,9.76
2019-05-01T04:23:56.949Z,9.75
2019-05-01T04:26:26.175Z,9.76
2019-05-01T04:29:14.383Z,9.78
2019-05-01T04:31:45.124Z,9.77
2019-05-01T04:34:18.305Z,9.79
2019-05-01T04:36:50.976Z,9.79
2019-05-01T04:39:19.567Z,9.80
2019-05-01T04:41:48.619Z,9.80
2019-05-01T04:44:17.585Z,9.78
2019-05-01T04:46:46.472Z,9.77
2019-05-01T04:49:18.152Z,9.80
2019-05-01T04:51:47.120Z,9.80
2019-05-01T04:54:15.750Z,9.83
2019-05-01T04:56:44.949Z,9.84
2019-05-01T04:59:13.603Z,9.84
2019-05-01T05:01:57.192Z,9.84
2019-05-01T05:04:27.032Z,9.84
2019-05-01T05:06:56.101Z,9.83
2019-05-01T05:09:45.104Z,9.82
2019-05-01T05:12:24.455Z,9.81
2019-05-01T05:14:58.211Z,9.82
2019-05-01T05:17:27.072Z,9.83
2019-05-01T05:19:56.338Z,9.85
2019-05-01T05:22:26.158Z,9.86
2019-05-01T05:24:54.591Z,9.88
2019-05-01T05:27:24.588Z,9.88
2019-05-01T05:29:56.084Z,9.89
2019-05-01T05:32:27.204Z,9.91
2019-05-01T05:34:58.813Z,9.88
2019-05-01T05:37:31.876Z,9.91
2019-05-01T05:40:02.258Z,9.92
2019-05-01T05:42:30.840Z,9.93
2019-05-01T05:44:59.905Z,9.95
2019-05-01T05:47:28.945Z,9.95
2019-05-01T05:49:58.266Z,9.97
2019-05-01T05:52:43.081Z,9.96
2019-05-01T05:55:19.146Z,9.98
2019-05-01T05:57:57.939Z,10.00
2019-05-01T06:00:45.106Z,10.02
2019-05-01T06:03:35.135Z,10.04
2019-05-01T06:06:13.425Z,10.08
2019-05-01T06:08:44.720Z,10.09
2019-05-01T06:11:35.360Z,10.10
2019-05-01T06:14:06.124Z,10.10
2019-05-01T06:16:40.675Z,10.10
2019-05-01T06:19:19.930Z,10.11
2019-05-01T06:22:10.229Z,10.10
2019-05-01T06:24:49.754Z,10.10
2019-05-01T06:27:19.111Z,10.07
2019-05-01T06:29:48.099Z,10.05
2019-05-01T06:32:16.553Z,10.04
2019-05-01T06:34:45.068Z,10.05
2019-05-01T06:37:13.891Z,10.04
2019-05-01T06:39:47.389Z,10.06
2019-05-01T06:42:14.981Z,10.07
2019-05-01T06:45:01.618Z,10.06
2019-05-01T06:47:31.698Z,10.05
2019-05-01T06:50:07.543Z,10.07
2019-05-01T06:52:38.436Z,10.07
2019-05-01T06:55:07.133Z,10.08
2019-05-01T06:57:38.429Z,10.09
2019-05-01T07:00:10.790Z,10.07
2019-05-01T07:02:40.362Z,10.03
2019-05-01T07:05:14.759Z,9.97
2019-05-01T07:07:43.103Z,9.92
2019-05-01T07:10:10.518Z,9.90
2019-05-01T07:12:39.525Z,9.89
2019-05-01T07:15:08.592Z,9.91
2019-05-01T07:17:37.146Z,9.92
2019-05-01T07:20:12.039Z,9.91
2019-05-01T07:22:42.284Z,9.91
2019-05-01T07:25:10.875Z,9.90
2019-05-01T07:27:39.528Z,9.91
2019-05-01T07:30:20.753Z,9.87
2019-05-01T07:32:49.538Z,9.84
2019-05-01T07:35:17.965Z,9.82
2019-05-01T07:37:46.387Z,9.79
2019-05-01T07:40:15.045Z,9.78
2019-05-01T07:43:01.688Z,9.75
2019-05-01T07:45:32.036Z,9.76
2019-05-01T07:48:01.124Z,9.77
2019-05-01T07:50:32.717Z,9.79
2019-05-01T07:53:01.985Z,9.82
2019-05-01T07:55:36.405Z,9.85
2019-05-01T07:58:10.571Z,9.89
2019-05-01T08:00:50.527Z,9.98
2019-05-01T08:03:19.099Z,10.05
2019-05-01T08:05:47.529Z,10.11
2019-05-01T08:08:16.250Z,10.13
2019-05-01T08:10:44.785Z,10.16
2019-05-01T08:13:13.228Z,10.18
2019-05-01T08:15:41.678Z,10.18
2019-05-01T08:18:14.922Z,10.17
2019-05-01T08:20:45.817Z,10.16
2019-05-01T08:23:14.495Z,10.16
2019-05-01T08:25:43.263Z,10.15
2019-05-01T08:28:13.408Z,10.14
2019-05-01T08:30:52.961Z,10.17
2019-05-01T08:33:44.833Z,10.21
2019-05-01T08:36:13.455Z,10.26
2019-05-01T08:38:41.995Z,10.29
2019-05-01T08:41:10.435Z,10.27
2019-05-01T08:43:39.376Z,10.23
2019-05-01T08:46:25.568Z,10.17
2019-05-01T08:48:55.736Z,10.15
2019-05-01T08:51:24.413Z,10.11
2019-05-01T08:53:57.652Z,10.10
2019-05-01T08:56:23.465Z,10.11
2019-05-01T08:58:52.237Z,10.12
2019-05-01T09:01:20.713Z,10.16
2019-05-01T09:03:49.686Z,10.15
2019-05-01T09:06:19.520Z,10.15
2019-05-01T09:08:47.928Z,10.16
2019-05-01T09:11:16.927Z,10.16
2019-05-01T09:13:45.361Z,10.16
2019-05-01T09:16:13.792Z,10.18
2019-05-01T09:18:42.335Z,10.19
2019-05-01T09:21:10.756Z,10.21
2019-05-01T09:23:39.189Z,10.21
2019-05-01T09:26:18.458Z,10.22
2019-05-01T09:28:51.327Z,10.21
2019-05-01T09:31:21.438Z,10.24
2019-05-01T09:33:50.104Z,10.22
2019-05-01T09:36:18.518Z,10.23
2019-05-01T09:38:49.891Z,10.24
2019-05-01T09:41:17.240Z,10.26
2019-05-01T09:43:45.757Z,10.28
2019-05-01T09:46:14.361Z,10.31
2019-05-01T09:48:43.601Z,10.34
2019-05-01T09:51:13.670Z,10.38
2019-05-01T09:53:46.116Z,10.44
2019-05-01T09:56:22.151Z,10.50
2019-05-01T09:58:50.575Z,10.50
2019-05-01T10:01:19.078Z,10.51
2019-05-01T10:03:49.430Z,10.55
2019-05-01T10:06:18.856Z,10.59
2019-05-01T10:08:47.632Z,10.65
2019-05-01T10:11:16.313Z,10.69
2019-05-01T10:13:44.982Z,10.72
2019-05-01T10:16:13.422Z,10.76
2019-05-01T10:18:42.164Z,10.83
2019-05-01T10:21:10.600Z,10.87
2019-05-01T10:23:39.018Z,10.88
2019-05-01T10:26:09.184Z,10.94
2019-05-01T10:28:49.945Z,10.95
2019-05-01T10:31:34.037Z,10.95
2019-05-01T10:34:12.692Z,10.95
2019-05-01T10:36:45.456Z,10.98
2019-05-01T10:39:16.092Z,11.06
2019-05-01T10:41:46.324Z,11.17
2019-05-01T10:44:14.300Z,11.19
2019-05-01T10:46:42.715Z,11.18
2019-05-01T10:49:11.129Z,11.13
2019-05-01T10:51:39.746Z,11.10
2019-05-01T10:54:08.418Z,11.05
2019-05-01T10:56:36.883Z,11.07
2019-05-01T10:59:05.783Z,11.12
2019-05-01T11:01:44.602Z,11.11
2019-05-01T11:04:13.060Z,11.09
2019-05-01T11:06:41.599Z,11.07
2019-05-01T11:09:10.041Z,11.06
2019-05-01T11:11:38.808Z,11.01
2019-05-01T11:14:07.319Z,10.96
2019-05-01T11:16:35.959Z,10.92
2019-05-01T11:19:05.634Z,10.88
2019-05-01T11:21:34.073Z,10.89
2019-05-01T11:24:02.507Z,10.98
2019-05-01T11:26:31.312Z,11.07
2019-05-01T11:28:59.752Z,11.15
2019-05-01T11:31:29.840Z,11.27
2019-05-01T11:34:05.836Z,11.34
2019-05-01T11:36:36.083Z,11.37
2019-05-01T11:39:17.769Z,11.35
2019-05-01T11:41:50.552Z,11.31
2019-05-01T11:44:18.971Z,11.28
2019-05-01T11:46:47.440Z,11.28
2019-05-01T11:49:16.241Z,11.30
2019-05-01T11:51:44.661Z,11.34
2019-05-01T11:54:13.673Z,11.38
2019-05-01T11:56:42.107Z,11.41
2019-05-01T11:59:10.575Z,11.38
2019-05-01T12:01:39.320Z,11.36
2019-05-01T12:04:07.755Z,11.36
2019-05-01T12:06:36.183Z,11.39
2019-05-01T12:09:07.199Z,11.40
2019-05-01T12:11:37.303Z,11.32
2019-05-01T12:14:05.820Z,11.28
2019-05-01T12:16:54.163Z,11.25
2019-05-01T12:19:25.156Z,11.27
2019-05-01T12:21:53.720Z,11.25
2019-05-01T12:24:22.163Z,11.24
2019-05-01T12:26:50.603Z,11.24
2019-05-01T12:29:19.429Z,11.26
2019-05-01T12:31:47.898Z,11.25
2019-05-01T12:34:16.334Z,11.21
2019-05-01T12:36:45.607Z,11.22
2019-05-01T12:39:18.050Z,11.26
2019-05-01T12:41:50.997Z,11.29
2019-05-01T12:44:19.512Z,11.33
2019-05-01T12:46:49.628Z,11.38
2019-05-01T12:49:18.037Z,11.43
2019-05-01T12:51:48.098Z,11.44
2019-05-01T12:54:33.126Z,11.47
2019-05-01T12:57:02.534Z,11.49
2019-05-01T12:59:30.989Z,11.53
2019-05-01T13:01:59.547Z,11.60
2019-05-01T13:04:29.453Z,11.69
2019-05-01T13:06:59.358Z,11.76
2019-05-01T13:09:27.839Z,11.80
2019-05-01T13:11:56.253Z,11.83
2019-05-01T13:14:24.702Z,11.94
2019-05-01T13:16:53.552Z,12.01
2019-05-01T13:19:22.014Z,12.04
2019-05-01T13:21:50.514Z,12.07
2019-05-01T13:24:18.968Z,12.14
2019-05-01T13:26:49.038Z,12.24
2019-05-01T13:29:19.302Z,12.41
2019-05-01T13:31:49.631Z,12.67
2019-05-01T13:34:18.060Z,12.92
2019-05-01T13:37:02.409Z,13.07
2019-05-01T13:39:20.991Z,13.18
2019-05-01T13:41:49.435Z,13.28
2019-05-01T13:44:18.062Z,13.27
2019-05-01T13:46:46.877Z,13.20
2019-05-01T13:49:15.291Z,13.10
2019-05-01T13:51:43.729Z,12.96
2019-05-01T13:54:12.358Z,12.86
2019-05-01T13:56:41.205Z,12.80
2019-05-01T13:59:11.116Z,12.78
2019-05-01T14:01:39.706Z,12.71
2019-05-01T14:04:08.635Z,12.62
2019-05-01T14:06:37.059Z,12.57
2019-05-01T14:09:09.351Z,12.57
2019-05-01T14:11:37.789Z,12.56
2019-05-01T14:14:06.202Z,12.55
2019-05-01T14:16:34.705Z,12.52
2019-05-01T14:19:03.159Z,12.45
2019-05-01T14:21:33.221Z,12.36
2019-05-01T14:24:03.448Z,12.26
2019-05-01T14:26:33.141Z,12.20
2019-05-01T14:29:01.577Z,12.16
2019-05-01T14:31:30.101Z,12.14
2019-05-01T14:33:58.550Z,12.12
2019-05-01T14:36:26.974Z,12.12
2019-05-01T14:38:55.778Z,12.13
2019-05-01T14:41:25.165Z,12.12
2019-05-01T14:43:53.685Z,12.15
2019-05-01T14:46:22.305Z,12.18
2019-05-01T14:48:51.110Z,12.20
2019-05-01T14:51:21.699Z,12.23
2019-05-01T14:53:49.760Z,12.30
2019-05-01T14:56:18.207Z,12.37
2019-05-01T14:58:46.688Z,12.34
2019-05-01T15:01:15.148Z,12.30
2019-05-01T15:03:43.574Z,12.25
2019-05-01T15:06:12.123Z,12.17
2019-05-01T15:08:40.840Z,12.11
2019-05-01T15:11:09.430Z,12.05
2019-05-01T15:13:42.195Z,11.98
2019-05-01T15:16:18.078Z,11.91
2019-05-01T15:18:48.223Z,11.84
2019-05-01T15:21:16.647Z,11.75
2019-05-01T15:23:53.455Z,11.73
2019-05-01T15:26:15.435Z,11.73
2019-05-01T15:28:43.868Z,11.69
2019-05-01T15:31:12.735Z,11.64
2019-05-01T15:33:41.166Z,11.63
2019-05-01T15:36:09.844Z,11.64
2019-05-01T15:38:38.301Z,11.65
2019-05-01T15:41:24.723Z,11.64
2019-05-01T15:44:04.041Z,11.57
2019-05-01T15:46:34.006Z,11.48
2019-05-01T15:49:02.439Z,11.37
2019-05-01T15:51:30.961Z,11.28
2019-05-01T15:53:59.531Z,11.21
2019-05-01T15:56:27.971Z,11.19
2019-05-01T15:58:56.472Z,11.16
2019-05-01T16:01:25.165Z,11.13
2019-05-01T16:03:53.641Z,11.11
2019-05-01T16:06:22.136Z,11.10
2019-05-01T16:08:50.586Z,11.07
2019-05-01T16:11:23.480Z,11.07
2019-05-01T16:13:51.939Z,11.04
2019-05-01T16:16:20.384Z,10.98
2019-05-01T16:18:48.817Z,10.93
2019-05-01T16:21:17.589Z,10.91
2019-05-01T16:23:46.010Z,10.89
2019-05-01T16:26:14.701Z,10.86
2019-05-01T16:28:43.175Z,10.83
2019-05-01T16:31:11.608Z,10.82
2019-05-01T16:33:40.035Z,10.77
2019-05-01T16:36:08.849Z,10.71
2019-05-01T16:38:47.834Z,10.67
2019-05-01T16:41:16.325Z,10.62
2019-05-01T16:43:44.919Z,10.57
2019-05-01T16:46:13.395Z,10.55
2019-05-01T16:48:41.918Z,10.51
2019-05-01T16:51:10.385Z,10.48
2019-05-01T16:53:38.809Z,10.45
2019-05-01T16:56:07.443Z,10.42
2019-05-01T16:58:36.189Z,10.39
2019-05-01T17:01:07.688Z,10.34
2019-05-01T17:03:56.167Z,10.32
2019-05-01T17:06:45.360Z,10.27
2019-05-01T17:09:32.129Z,10.22
2019-05-01T17:12:00.542Z,10.20
2019-05-01T17:14:29.266Z,10.14
2019-05-01T17:16:58.455Z,10.14
2019-05-01T17:19:26.872Z,10.18
2019-05-01T17:21:55.293Z,10.18
2019-05-01T17:24:23.965Z,10.17
2019-05-01T17:26:52.608Z,10.17
2019-05-01T17:29:21.025Z,10.16
2019-05-01T17:31:49.491Z,10.17
2019-05-01T17:34:17.925Z,10.14
2019-05-01T17:36:46.366Z,10.12
2019-05-01T17:39:16.596Z,10.10
2019-05-01T17:41:45.120Z,10.07
2019-05-01T17:44:13.558Z,10.05
2019-05-01T17:46:47.010Z,10.04
2019-05-01T17:49:12.316Z,10.03
2019-05-01T17:51:42.756Z,9.98
2019-05-01T17:54:11.892Z,9.96
2019-05-01T17:56:40.604Z,9.94
2019-05-01T17:59:10.704Z,9.90
2019-05-01T18:01:46.811Z,9.85
2019-05-01T18:04:29.310Z,9.79
2019-05-01T18:06:58.276Z,9.75
2019-05-01T18:09:26.888Z,9.70
2019-05-01T18:11:55.305Z,9.68
2019-05-01T18:14:23.764Z,9.66
2019-05-01T18:16:52.302Z,9.64
2019-05-01T18:19:20.717Z,9.63
2019-05-01T18:21:51.853Z,9.63
2019-05-01T18:24:40.413Z,9.62
2019-05-01T18:27:20.440Z,9.59
2019-05-01T18:29:50.596Z,9.56
2019-05-01T18:32:20.933Z,9.54
2019-05-01T18:34:50.272Z,9.53
2019-05-01T18:37:31.150Z,9.51
2019-05-01T18:40:00.328Z,9.51
2019-05-01T18:42:28.759Z,9.51
2019-05-01T18:44:57.350Z,9.51
2019-05-01T18:47:26.318Z,9.49
2019-05-01T18:49:55.022Z,9.47
2019-05-01T18:52:23.448Z,9.47
2019-05-01T18:54:52.793Z,9.45
2019-05-01T18:57:21.276Z,9.43
2019-05-01T18:59:49.695Z,9.42
2019-05-01T19:02:20.401Z,9.42
2019-05-01T19:04:48.623Z,9.41
2019-05-01T19:07:17.063Z,9.42
2019-05-01T19:09:45.510Z,9.43
2019-05-01T19:12:15.182Z,9.44
2019-05-01T19:14:43.617Z,9.43
2019-05-01T19:17:12.066Z,9.41
2019-05-01T19:19:40.489Z,9.40
2019-05-01T19:22:09.249Z,9.39
2019-05-01T19:24:39.899Z,9.38
2019-05-01T19:27:07.952Z,9.36
2019-05-01T19:29:36.482Z,9.34
2019-05-01T19:32:05.595Z,9.34
2019-05-01T19:34:34.029Z,9.35
2019-05-01T19:37:02.539Z,9.35
2019-05-01T19:39:42.891Z,9.37
2019-05-01T19:42:01.620Z,9.35
2019-05-01T19:44:30.043Z,9.34
2019-05-01T19:46:58.521Z,9.33
2019-05-01T19:49:29.805Z,9.32
2019-05-01T19:52:00.685Z,9.31
2019-05-01T19:54:29.822Z,9.28
2019-05-01T19:56:57.543Z,9.24
2019-05-01T19:59:25.968Z,9.22
2019-05-01T20:01:54.462Z,9.19
2019-05-01T20:04:22.872Z,9.18
2019-05-01T20:06:51.303Z,9.18
2019-05-01T20:09:21.011Z,9.17
2019-05-01T20:11:49.602Z,9.18
2019-05-01T20:14:18.144Z,9.18
2019-05-01T20:16:46.697Z,9.18
2019-05-01T20:19:17.836Z,9.18
2019-05-01T20:21:46.266Z,9.19
2019-05-01T20:24:15.050Z,9.21
2019-05-01T20:26:43.471Z,9.22
2019-05-01T20:29:11.885Z,9.22
2019-05-01T20:31:40.629Z,9.22
2019-05-01T20:34:12.077Z,9.19
2019-05-01T20:36:39.212Z,9.18
2019-05-01T20:39:08.732Z,9.18
2019-05-01T20:41:37.195Z,9.15
2019-05-01T20:44:05.697Z,9.15
2019-05-01T20:46:34.111Z,9.13
2019-05-01T20:49:06.478Z,9.11
2019-05-01T20:51:32.782Z,9.08
2019-05-01T20:54:01.257Z,9.08
2019-05-01T20:56:31.322Z,9.08
2019-05-01T20:59:03.292Z,9.11
2019-05-01T21:01:30.730Z,9.11
2019-05-01T21:04:13.842Z,9.12
2019-05-01T21:06:47.081Z,9.12
2019-05-01T21:09:17.144Z,9.11
2019-05-01T21:11:48.744Z,9.09
2019-05-01T21:14:22.758Z,9.05
2019-05-01T21:16:47.838Z,9.03
2019-05-01T21:19:16.359Z,9.02
2019-05-01T21:21:44.831Z,9.00
2019-05-01T21:24:13.956Z,8.97
2019-05-01T21:26:43.404Z,8.95
2019-05-01T21:29:14.000Z,8.95
2019-05-01T21:31:44.043Z,8.96
2019-05-01T21:34:14.527Z,8.96
2019-05-01T21:36:47.604Z,8.97
2019-05-01T21:39:14.851Z,8.96
2019-05-01T21:41:43.343Z,8.95
2019-05-01T21:44:13.155Z,8.91
2019-05-01T21:46:43.172Z,8.88
2019-05-01T21:49:12.979Z,8.87
2019-05-01T21:51:45.940Z,8.83
2019-05-01T21:54:15.989Z,8.84
2019-05-01T21:56:42.872Z,8.82
2019-05-01T21:59:11.379Z,8.82
2019-05-01T22:01:39.804Z,8.81
2019-05-01T22:04:08.534Z,8.81
2019-05-01T22:06:37.133Z,8.81
2019-05-01T22:09:10.502Z,8.80
2019-05-01T22:11:39.378Z,8.80
2019-05-01T22:14:09.497Z,8.79
2019-05-01T22:16:37.918Z,8.79
2019-05-01T22:19:08.005Z,8.80
2019-05-01T22:21:54.520Z,8.82
2019-05-01T22:24:30.628Z,8.83
2019-05-01T22:27:03.566Z,8.83
2019-05-01T22:29:39.914Z,8.83
2019-05-01T22:32:12.679Z,8.82
2019-05-01T22:34:45.609Z,8.82
2019-05-01T22:37:14.023Z,8.82
2019-05-01T22:39:44.084Z,8.84
2019-05-01T22:42:12.723Z,8.83
2019-05-01T22:44:41.142Z,8.82
2019-05-01T22:47:14.579Z,8.81
2019-05-01T22:49:39.970Z,8.81
2019-05-01T22:52:08.394Z,8.79
2019-05-01T22:54:36.809Z,8.80
2019-05-01T22:57:05.241Z,8.79
2019-05-01T22:59:33.664Z,8.79
2019-05-01T23:02:03.770Z,8.78
2019-05-01T23:04:32.501Z,8.78
2019-05-01T23:07:00.984Z,8.78
2019-05-01T23:09:30.402Z,8.78
2019-05-01T23:11:59.022Z,8.75
2019-05-01T23:14:27.968Z,8.75
2019-05-01T23:17:03.335Z,8.75
2019-05-01T23:19:32.262Z,8.74
2019-05-01T23:22:00.820Z,8.73
2019-05-01T23:24:29.298Z,8.72
2019-05-01T23:26:57.754Z,8.70
2019-05-01T23:29:26.521Z,8.70
2019-05-01T23:31:55.510Z,8.69
2019-05-01T23:34:26.075Z,8.68
2019-05-01T23:36:54.128Z,8.68
2019-05-01T23:39:22.587Z,8.68
2019-05-01T23:41:51.183Z,8.69
2019-05-01T23:44:19.679Z,8.70
2019-05-01T23:46:48.086Z,8.72
2019-05-01T23:49:17.244Z,8.73
2019-05-01T23:51:45.669Z,8.73
2019-05-01T23:54:14.097Z,8.74
2019-05-01T23:56:42.546Z,8.74
2019-05-01T23:59:10.959Z,8.76
